Time;durP1;ratioP1;P1;durP2;ratioP2;P2;SDS_P1;SDS_P2;PMS_P1;PMS_P2;Temp;Humidity;BMP_temperature;BMP_pressure;BME280_temperature;BME280_humidity;BME280_pressure;Samples;Min_cycle;Max_cycle;Signal;HPM_P1;HPM_P2
2021/04/20 00:01:18;;;;;;;42.78;29.70;;;231.00;2252.80;;;;;;5072776;28;20126;-78
2021/04/20 00:03:44;;;;;;;40.97;28.75;;;231.00;2252.80;;;;;;5057413;28;20491;-78
2021/04/20 00:06:10;;;;;;;42.83;29.15;;;230.90;2252.80;;;;;;5062458;28;20024;-77
2021/04/20 00:08:37;;;;;;;38.72;26.95;;;230.90;2252.80;;;;;;5073520;28;20021;-76
2021/04/20 00:11:03;;;;;;;47.97;29.08;;;231.00;2252.80;;;;;;5052074;28;20021;-75
2021/04/20 00:13:29;;;;;;;36.22;25.58;;;231.00;2252.80;;;;;;5053740;28;20017;-76
2021/04/20 00:15:55;;;;;;;37.03;25.55;;;231.00;2252.80;;;;;;5052552;28;20036;-76
2021/04/20 00:18:21;;;;;;;36.78;27.40;;;231.00;2252.80;;;;;;5053345;28;20505;-75
2021/04/20 00:20:47;;;;;;;36.58;24.40;;;231.10;2252.80;;;;;;5053435;28;20033;-75
2021/04/20 00:23:12;;;;;;;33.75;25.48;;;231.10;2252.80;;;;;;5053523;28;20043;-75
2021/04/20 00:25:38;;;;;;;37.15;26.73;;;231.00;2252.80;;;;;;5052459;28;20384;-75
2021/04/20 00:28:04;;;;;;;37.92;26.98;;;231.10;2252.80;;;;;;5053391;28;20098;-75
2021/04/20 00:30:30;;;;;;;37.03;26.77;;;231.00;2252.80;;;;;;5051902;28;20013;-75
2021/04/20 00:32:56;;;;;;;33.42;25.33;;;231.00;2252.80;;;;;;5053291;28;20028;-75
2021/04/20 00:35:21;;;;;;;36.08;25.20;;;231.00;2252.80;;;;;;5051841;28;20032;-75
2021/04/20 00:37:47;;;;;;;37.80;26.42;;;231.00;2252.80;;;;;;5053064;28;20365;-76
2021/04/20 00:40:15;;;;;;;40.10;28.45;;;231.00;2252.80;;;;;;5052495;28;20029;-75
2021/04/20 00:42:52;;;;;;;38.20;26.65;;;231.10;2252.80;;;;;;5051923;28;20025;-75
2021/04/20 00:45:23;;;;;;;39.90;27.77;;;231.10;2252.80;;;;;;5051548;28;20075;-75
2021/04/20 00:47:49;;;;;;;44.67;28.40;;;231.00;2252.80;;;;;;5052690;28;20142;-75
2021/04/20 00:50:17;;;;;;;39.53;26.65;;;231.00;2252.80;;;;;;5052818;28;20104;-75
2021/04/20 00:52:43;;;;;;;38.22;27.45;;;231.00;2252.80;;;;;;5052529;28;20064;-75
2021/04/20 00:55:09;;;;;;;38.20;27.38;;;231.00;2252.80;;;;;;5051310;28;20080;-75
2021/04/20 00:57:35;;;;;;;40.58;27.52;;;231.00;2252.80;;;;;;5052324;28;20441;-75
2021/04/20 01:00:01;;;;;;;42.25;29.08;;;231.00;2252.80;;;;;;5051269;28;20040;-75
2021/04/20 01:02:27;;;;;;;40.20;27.50;;;231.00;2252.80;;;;;;5058679;28;20047;-75
2021/04/20 01:04:53;;;;;;;41.38;28.48;;;231.00;2252.80;;;;;;5063068;28;20510;-75
2021/04/20 01:07:19;;;;;;;38.88;27.45;;;230.90;2252.80;;;;;;5054471;28;20029;-75
2021/04/20 01:09:48;;;;;;;44.92;29.70;;;231.00;2252.80;;;;;;5045680;28;20029;-75
2021/04/20 01:12:14;;;;;;;38.00;27.40;;;230.90;2252.80;;;;;;5056906;28;20017;-75
2021/04/20 01:14:40;;;;;;;42.13;28.27;;;230.90;2252.80;;;;;;5047366;28;20120;-75
2021/04/20 01:17:06;;;;;;;37.08;26.98;;;230.90;2252.80;;;;;;5050308;28;20108;-75
2021/04/20 01:19:33;;;;;;;41.17;28.80;;;230.90;2252.80;;;;;;5052273;28;20079;-75
2021/04/20 01:21:59;;;;;;;40.80;29.00;;;230.80;2252.80;;;;;;5052511;28;20017;-76
2021/04/20 01:24:26;;;;;;;41.25;28.00;;;230.80;2252.80;;;;;;5052004;28;20025;-76
2021/04/20 01:26:53;;;;;;;34.85;27.95;;;230.80;2252.80;;;;;;5051003;28;20029;-75
2021/04/20 01:29:23;;;;;;;39.30;28.48;;;230.70;2252.80;;;;;;5052351;28;20017;-75
2021/04/20 01:31:50;;;;;;;40.80;28.95;;;230.70;2252.80;;;;;;5052200;28;20104;-76
2021/04/20 01:34:17;;;;;;;39.95;28.65;;;230.70;2252.80;;;;;;5052092;28;20053;-76
2021/04/20 01:36:43;;;;;;;37.65;27.98;;;230.70;2252.80;;;;;;5051596;28;20021;-76
2021/04/20 01:39:12;;;;;;;40.13;27.30;;;230.60;2252.80;;;;;;5052026;28;20025;-76
2021/04/20 01:41:38;;;;;;;38.85;27.55;;;230.70;2252.80;;;;;;5051655;28;20032;-75
2021/04/20 01:44:05;;;;;;;39.97;26.42;;;230.70;2252.80;;;;;;5049337;28;20025;-76
2021/04/20 01:46:31;;;;;;;36.35;26.35;;;230.70;2252.80;;;;;;5049658;28;20025;-75
2021/04/20 01:48:57;;;;;;;36.70;25.45;;;230.70;2252.80;;;;;;5050144;28;20028;-75
2021/04/20 01:51:24;;;;;;;34.63;26.00;;;230.70;2252.80;;;;;;5052087;28;20021;-75
2021/04/20 01:53:51;;;;;;;38.45;26.05;;;230.80;2252.80;;;;;;5051825;28;20377;-76
2021/04/20 01:56:17;;;;;;;33.90;25.92;;;230.80;2252.80;;;;;;5052002;28;20029;-76
2021/04/20 01:58:45;;;;;;;39.33;25.75;;;230.80;2252.80;;;;;;5051898;28;20096;-75
2021/04/20 02:01:12;;;;;;;39.20;27.27;;;230.80;2252.80;;;;;;5050665;28;20029;-75
2021/04/20 02:03:39;;;;;;;42.08;29.17;;;230.80;2252.80;;;;;;5050454;28;20021;-75
2021/04/20 02:06:09;;;;;;;36.97;27.98;;;230.90;2252.80;;;;;;5051970;28;20028;-75
2021/04/20 02:08:35;;;;;;;40.28;26.55;;;230.90;2252.80;;;;;;5051859;28;20013;-75
2021/04/20 02:11:06;;;;;;;39.85;27.52;;;230.90;2252.80;;;;;;5050666;28;20039;-75
2021/04/20 02:13:33;;;;;;;40.78;28.38;;;230.90;2252.80;;;;;;5051854;28;20021;-74
2021/04/20 02:16:01;;;;;;;44.95;30.67;;;230.90;2252.80;;;;;;5051652;28;20052;-74
2021/04/20 02:18:27;;;;;;;44.42;30.13;;;230.80;2252.80;;;;;;5051884;28;20025;-75
2021/04/20 02:20:53;;;;;;;44.83;32.65;;;230.70;2252.80;;;;;;5051525;28;20100;-75
2021/04/20 02:23:21;;;;;;;40.90;31.88;;;230.60;2252.80;;;;;;5051923;28;20052;-75
2021/04/20 02:25:48;;;;;;;41.60;31.42;;;230.60;2252.80;;;;;;5049960;28;20115;-75
2021/04/20 02:28:14;;;;;;;47.80;32.30;;;230.60;2252.80;;;;;;5050373;28;20037;-76
2021/04/20 02:30:40;;;;;;;43.55;30.73;;;230.60;2252.80;;;;;;5051168;28;20025;-76
2021/04/20 02:33:06;;;;;;;50.78;33.08;;;230.60;2252.80;;;;;;5051629;28;20101;-76
2021/04/20 02:35:32;;;;;;;43.60;32.55;;;230.60;2252.80;;;;;;5051795;28;20535;-75
2021/04/20 02:37:59;;;;;;;46.05;33.38;;;230.60;2252.80;;;;;;5050333;28;20033;-76
2021/04/20 02:40:29;;;;;;;45.42;32.67;;;230.60;2252.80;;;;;;5050490;28;20028;-75
2021/04/20 02:42:55;;;;;;;46.72;31.30;;;230.60;2252.80;;;;;;5050161;28;20125;-76
2021/04/20 02:45:23;;;;;;;42.17;30.70;;;230.60;2252.80;;;;;;5051498;28;20017;-76
2021/04/20 02:47:53;;;;;;;47.40;30.92;;;230.70;2252.80;;;;;;5050794;28;20033;-75
2021/04/20 02:50:26;;;;;;;43.55;32.60;;;230.70;2252.80;;;;;;5055291;28;20059;-75
2021/04/20 02:52:54;;;;;;;44.67;30.85;;;230.80;2252.80;;;;;;5054042;28;20029;-76
2021/04/20 02:55:21;;;;;;;46.25;32.70;;;230.80;2252.80;;;;;;5054945;28;20045;-76
2021/04/20 02:57:53;;;;;;;49.53;33.40;;;230.70;2252.80;;;;;;5055242;28;20041;-75
2021/04/20 03:00:21;;;;;;;48.55;33.53;;;230.60;2252.80;;;;;;5054905;28;20380;-76
2021/04/20 03:02:53;;;;;;;45.30;31.48;;;230.60;2252.80;;;;;;5055128;28;20098;-77
2021/04/20 03:05:21;;;;;;;49.38;34.55;;;230.60;2252.80;;;;;;5054777;28;20021;-76
2021/04/20 03:07:48;;;;;;;50.67;34.38;;;230.60;2252.80;;;;;;5053638;28;20111;-76
2021/04/20 03:10:16;;;;;;;46.08;33.17;;;230.60;2252.80;;;;;;5051569;28;20463;-75
2021/04/20 03:12:42;;;;;;;53.90;37.17;;;230.50;2252.80;;;;;;5054582;28;20385;-76
2021/04/20 03:15:11;;;;;;;53.95;38.40;;;230.50;2252.80;;;;;;5053528;28;20087;-75
2021/04/20 03:17:48;;;;;;;53.25;38.17;;;230.50;2252.80;;;;;;5040423;28;20028;-75
2021/04/20 03:20:16;;;;;;;52.90;39.63;;;230.50;2252.80;;;;;;5054713;28;20025;-75
2021/04/20 03:22:43;;;;;;;60.67;40.05;;;230.50;2252.80;;;;;;5054777;28;20033;-75
2021/04/20 03:25:09;;;;;;;54.63;39.22;;;230.40;2252.80;;;;;;5068594;28;20036;-75
2021/04/20 03:27:43;;;;;;;61.40;41.38;;;230.40;2252.80;;;;;;5073303;28;20024;-75
2021/04/20 03:30:12;;;;;;;58.47;41.00;;;230.40;2252.80;;;;;;5072047;28;20066;-75
2021/04/20 03:32:42;;;;;;;52.13;38.00;;;230.40;2252.80;;;;;;5056220;28;20392;-75
2021/04/20 03:35:13;;;;;;;56.53;39.10;;;230.40;2252.80;;;;;;5053958;28;20029;-76
2021/04/20 03:37:53;;;;;;;57.05;40.15;;;230.40;2252.80;;;;;;5065085;28;20024;-75
2021/04/20 03:40:21;;;;;;;51.83;37.88;;;230.50;2252.80;;;;;;5051243;28;20380;-76
2021/04/20 03:43:01;;;;;;;57.33;41.50;;;230.50;2252.80;;;;;;5070065;28;20024;-76
2021/04/20 03:45:31;;;;;;;55.03;38.20;;;230.50;2252.80;;;;;;5057876;28;20104;-76
2021/04/20 03:48:11;;;;;;;52.63;38.47;;;230.50;2252.80;;;;;;5063903;28;20017;-75
2021/04/20 03:50:40;;;;;;;54.80;38.47;;;230.40;2252.80;;;;;;5056772;28;20028;-75
2021/04/20 03:53:08;;;;;;;55.13;40.85;;;230.40;2252.80;;;;;;5052614;28;20494;-75
2021/04/20 03:55:37;;;;;;;55.80;40.47;;;230.40;2252.80;;;;;;5051886;28;20072;-75
2021/04/20 03:58:05;;;;;;;63.33;42.88;;;230.40;2252.80;;;;;;5058361;28;20055;-74
2021/04/20 04:00:32;;;;;;;67.13;46.00;;;230.40;2252.80;;;;;;5058343;28;20029;-76
2021/04/20 04:02:59;;;;;;;71.57;47.63;;;230.40;2252.80;;;;;;5053693;28;20025;-75
2021/04/20 04:05:31;;;;;;;64.88;45.70;;;230.40;2252.80;;;;;;5048543;28;20036;-76
2021/04/20 04:08:00;;;;;;;60.60;43.63;;;230.40;2252.80;;;;;;5060393;28;20021;-76
2021/04/20 04:10:30;;;;;;;62.13;44.40;;;230.40;2252.80;;;;;;5041104;28;20482;-76
2021/04/20 04:13:01;;;;;;;65.18;44.05;;;230.50;2252.80;;;;;;5041351;28;20045;-75
2021/04/20 04:15:28;;;;;;;62.17;42.08;;;230.50;2252.80;;;;;;5041496;28;20029;-75
2021/04/20 04:17:57;;;;;;;70.25;46.15;;;230.60;2252.80;;;;;;5058038;28;20033;-75
2021/04/20 04:20:23;;;;;;;66.70;46.45;;;230.60;2252.80;;;;;;5059982;28;20434;-75
2021/04/20 04:22:54;;;;;;;86.53;57.80;;;230.60;2252.80;;;;;;5053596;28;20032;-75
2021/04/20 04:25:26;;;;;;;81.82;54.58;;;230.60;2252.80;;;;;;5052969;28;20025;-75
2021/04/20 04:27:52;;;;;;;80.97;56.92;;;230.50;2252.80;;;;;;5053125;28;20438;-75
2021/04/20 04:30:21;;;;;;;79.22;56.22;;;230.50;2252.80;;;;;;5051527;28;20036;-75
2021/04/20 04:32:47;;;;;;;63.90;44.05;;;230.60;2252.80;;;;;;5058557;28;20056;-75
2021/04/20 04:35:14;;;;;;;65.90;46.30;;;230.60;2252.80;;;;;;5062960;28;20080;-75
2021/04/20 04:37:41;;;;;;;74.07;51.45;;;230.60;2252.80;;;;;;5049516;28;20025;-75
2021/04/20 04:40:08;;;;;;;86.72;55.60;;;230.70;2252.80;;;;;;5055334;28;20060;-75
2021/04/20 04:42:35;;;;;;;73.57;49.42;;;230.70;2252.80;;;;;;5053807;28;20078;-76
2021/04/20 04:45:04;;;;;;;77.10;52.03;;;230.70;2252.80;;;;;;5062684;28;20851;-75
2021/04/20 04:47:32;;;;;;;76.43;50.33;;;230.70;2252.80;;;;;;5064649;28;20078;-75
2021/04/20 04:50:03;;;;;;;78.60;49.10;;;230.70;2252.80;;;;;;5067271;28;20068;-75
2021/04/20 04:52:30;;;;;;;64.72;43.35;;;230.80;2252.80;;;;;;5067421;28;20020;-75
2021/04/20 04:54:59;;;;;;;67.20;45.60;;;230.80;2252.80;;;;;;5064818;28;20060;-75
2021/04/20 04:57:27;;;;;;;74.75;43.03;;;230.80;2252.80;;;;;;5064987;28;20085;-75
2021/04/20 05:00:00;;;;;;;69.95;42.08;;;231.00;2252.80;;;;;;5066734;28;20024;-76
2021/04/20 05:02:27;;;;;;;61.80;43.58;;;230.90;2252.80;;;;;;5052544;28;20033;-76
2021/04/20 05:04:57;;;;;;;68.25;44.97;;;230.90;2252.80;;;;;;5055533;28;20028;-74
2021/04/20 05:07:24;;;;;;;60.13;44.85;;;230.90;2252.80;;;;;;5048287;28;20483;-74
2021/04/20 05:09:50;;;;;;;72.25;46.45;;;230.90;2252.80;;;;;;5060453;28;20024;-74
2021/04/20 05:12:20;;;;;;;65.13;45.58;;;231.00;2252.80;;;;;;5060929;28;20017;-74
2021/04/20 05:14:46;;;;;;;72.90;48.47;;;231.10;2252.80;;;;;;5060212;28;20021;-74
2021/04/20 05:17:12;;;;;;;88.10;51.92;;;231.00;2252.80;;;;;;5050354;28;20116;-74
2021/04/20 05:19:41;;;;;;;96.35;55.15;;;231.10;2252.80;;;;;;5052651;28;20082;-73
2021/04/20 05:22:07;;;;;;;62.17;42.53;;;231.10;2252.80;;;;;;5052104;28;20025;-75
2021/04/20 05:24:33;;;;;;;72.43;45.35;;;231.20;2252.80;;;;;;5059291;28;20036;-74
2021/04/20 05:26:58;;;;;;;68.45;43.42;;;231.20;2252.80;;;;;;5055788;28;20036;-74
2021/04/20 05:29:24;;;;;;;58.97;41.28;;;231.20;2252.80;;;;;;5060766;28;20050;-74
2021/04/20 05:31:51;;;;;;;64.53;41.97;;;231.20;2252.80;;;;;;5059982;28;20025;-74
2021/04/20 05:34:20;;;;;;;67.30;45.83;;;231.20;2252.80;;;;;;5060233;28;20526;-73
2021/04/20 05:36:47;;;;;;;73.78;50.08;;;231.20;2252.80;;;;;;5060225;28;20429;-74
2021/04/20 05:39:15;;;;;;;55.97;40.30;;;231.30;2252.80;;;;;;5059728;28;20032;-74
2021/04/20 05:41:41;;;;;;;82.55;42.50;;;256.00;2252.80;;;;;;5064496;28;20046;-73
2021/04/20 05:44:09;;;;;;;56.33;39.90;;;256.10;2252.80;;;;;;5057093;28;20032;-74
2021/04/20 05:46:36;;;;;;;50.53;35.88;;;256.10;2252.80;;;;;;5059604;28;20021;-74
2021/04/20 05:49:04;;;;;;;55.78;38.50;;;256.30;2252.80;;;;;;5051088;28;20079;-74
2021/04/20 05:51:29;;;;;;;57.58;39.45;;;256.40;2252.80;;;;;;5060128;28;20055;-74
2021/04/20 05:53:55;;;;;;;57.45;39.03;;;256.40;2252.80;;;;;;5055225;28;20059;-74
2021/04/20 05:56:25;;;;;;;55.95;38.75;;;256.50;2252.80;;;;;;5056635;28;20877;-73
2021/04/20 05:58:58;;;;;;;69.63;42.72;;;256.60;2252.80;;;;;;5052002;28;20040;-73
2021/04/20 06:01:25;;;;;;;56.55;39.83;;;256.80;2252.80;;;;;;5050372;28;20025;-74
2021/04/20 06:03:52;;;;;;;59.28;37.80;;;256.80;2252.80;;;;;;5038723;28;20107;-74
2021/04/20 06:06:20;;;;;;;52.72;37.00;;;256.70;2252.80;;;;;;5062006;28;20029;-73
2021/04/20 06:08:48;;;;;;;61.08;42.65;;;256.80;2252.80;;;;;;5056931;28;20056;-73
2021/04/20 06:11:15;;;;;;;56.22;38.47;;;256.70;2252.80;;;;;;5066154;28;20033;-73
2021/04/20 06:13:42;;;;;;;56.88;38.10;;;256.90;2252.80;;;;;;5062857;28;20028;-73
2021/04/20 06:16:10;;;;;;;61.90;41.15;;;256.90;2252.80;;;;;;5052403;28;20388;-73
2021/04/20 06:18:38;;;;;;;55.40;39.25;;;256.80;2252.80;;;;;;5070858;28;20029;-73
2021/04/20 06:21:06;;;;;;;51.50;33.97;;;281.60;2278.40;;;;;;5051843;28;20013;-73
2021/04/20 06:23:35;;;;;;;53.25;35.80;;;281.70;2278.40;;;;;;5053363;28;20388;-74
2021/04/20 06:26:03;;;;;;;54.35;39.45;;;281.80;2278.40;;;;;;5054276;28;20148;-73
2021/04/20 06:28:31;;;;;;;49.45;36.90;;;281.60;2278.40;;;;;;5055645;28;20023;-73
2021/04/20 06:31:02;;;;;;;54.35;38.72;;;281.70;2278.40;;;;;;5067772;28;20016;-73
2021/04/20 06:33:31;;;;;;;58.85;40.72;;;281.70;2278.40;;;;;;5051356;28;20025;-73
2021/04/20 06:35:57;;;;;;;60.05;40.72;;;281.90;2278.40;;;;;;5061439;28;20551;-73
2021/04/20 06:38:24;;;;;;;57.20;40.60;;;282.00;2278.40;;;;;;5065002;28;20039;-73
2021/04/20 06:40:54;;;;;;;59.08;39.20;;;281.90;2278.40;;;;;;5060386;28;20487;-73
2021/04/20 06:43:28;;;;;;;57.78;38.72;;;282.00;2278.40;;;;;;5060748;28;20108;-74
2021/04/20 06:46:01;;;;;;;52.45;36.20;;;281.80;2278.40;;;;;;5067056;28;20034;-73
2021/04/20 06:48:45;;;;;;;52.33;35.05;;;282.00;2278.40;;;;;;5059547;28;20805;-73
2021/04/20 06:51:23;;;;;;;55.70;37.72;;;282.00;2278.40;;;;;;5057766;28;20112;-73
2021/04/20 06:54:01;;;;;;;55.03;38.35;;;282.20;2278.40;;;;;;5056046;28;20025;-74
2021/04/20 06:56:33;;;;;;;50.60;35.92;;;282.10;2278.40;;;;;;5060896;28;20028;-75
2021/04/20 06:59:22;;;;;;;50.30;34.63;;;282.30;2278.40;;;;;;5054541;28;20021;-73
2021/04/20 07:02:05;;;;;;;48.10;34.60;;;282.50;2278.40;;;;;;5042750;28;20785;-73
2021/04/20 07:04:51;;;;;;;52.30;36.28;;;307.20;2304.00;;;;;;5042027;28;20272;-73
2021/04/20 07:07:31;;;;;;;48.43;34.70;;;307.30;2304.00;;;;;;5046115;28;20034;-73
2021/04/20 07:10:09;;;;;;;47.42;31.80;;;307.50;2304.00;;;;;;5050775;28;20045;-73
2021/04/20 07:12:35;;;;;;;46.08;33.50;;;307.70;2304.00;;;;;;5040438;28;20021;-73
2021/04/20 07:15:02;;;;;;;48.17;35.90;;;307.90;2304.00;;;;;;5044041;28;20039;-74
2021/04/20 07:17:52;;;;;;;54.17;34.17;;;307.90;2304.00;;;;;;5048796;28;20021;-73
2021/04/20 07:21:02;;;;;;;46.65;34.92;;;308.10;2304.00;;;;;;5046311;28;20025;-72
2021/04/20 07:24:05;;;;;;;44.05;31.52;;;333.10;2329.60;;;;;;4997717;28;20502;-74
2021/04/20 07:27:13;;;;;;;43.85;32.22;;;333.40;2329.60;;;;;;5004229;28;20070;-73
2021/04/20 07:30:00;;;;;;;41.90;32.33;;;358.40;2278.40;;;;;;5004386;28;20128;-73
2021/04/20 07:32:54;;;;;;;44.00;32.40;;;358.40;2227.20;;;;;;4990814;28;20118;-74
2021/04/20 07:35:31;;;;;;;48.83;33.97;;;333.60;2252.80;;;;;;4992786;28;20026;-73
2021/04/20 07:38:05;;;;;;;44.85;32.25;;;358.40;2252.80;;;;;;4991241;28;20485;-72
2021/04/20 07:40:58;;;;;;;63.95;40.13;;;333.70;2304.00;;;;;;5001777;28;20042;-73
2021/04/20 07:44:11;;;;;;;44.78;35.28;;;358.40;2278.40;;;;;;4994081;28;20030;-74
2021/04/20 07:46:57;;;;;;;54.50;37.47;;;333.60;2278.40;;;;;;4907804;29;20040;-74
2021/04/20 07:49:44;;;;;;;49.90;36.95;;;333.40;2329.60;;;;;;4914836;29;20495;-74
2021/04/20 07:52:14;;;;;;;50.58;35.90;;;333.40;2329.60;;;;;;4911604;29;20035;-73
2021/04/20 07:54:54;;;;;;;56.28;38.38;;;333.50;2329.60;;;;;;4912926;29;20098;-74
2021/04/20 07:57:33;;;;;;;51.70;36.97;;;333.70;2304.00;;;;;;4913485;29;20044;-74
2021/04/20 08:00:10;;;;;;;56.08;40.00;;;358.40;2252.80;;;;;;4979543;28;20129;-74
2021/04/20 08:02:48;;;;;;;48.05;35.55;;;333.60;2278.40;;;;;;4991143;28;20575;-74
2021/04/20 08:05:28;;;;;;;45.97;34.83;;;333.60;2278.40;;;;;;4991772;28;20030;-73
2021/04/20 08:08:16;;;;;;;51.85;37.28;;;358.40;2252.80;;;;;;4989893;28;20026;-74
2021/04/20 08:10:50;;;;;;;48.45;34.90;;;358.40;2252.80;;;;;;4990852;28;20035;-74
2021/04/20 08:13:24;;;;;;;53.70;40.03;;;358.40;2227.20;;;;;;4989222;28;20034;-74
2021/04/20 08:15:55;;;;;;;44.35;33.08;;;358.70;2227.20;;;;;;4992150;28;20564;-74
2021/04/20 08:18:36;;;;;;;47.92;34.35;;;358.70;2176.00;;;;;;4989459;28;20038;-74
2021/04/20 08:21:05;;;;;;;45.58;34.15;;;358.80;2176.00;;;;;;4973014;28;20038;-73
2021/04/20 08:23:35;;;;;;;43.80;34.08;;;358.70;2201.60;;;;;;5046059;28;20044;-73
2021/04/20 08:26:14;;;;;;;46.28;34.22;;;359.00;2201.60;;;;;;5060621;28;20062;-73
2021/04/20 08:28:54;;;;;;;47.00;35.33;;;358.90;2176.00;;;;;;5061616;28;20017;-73
2021/04/20 08:31:51;;;;;;;49.00;34.22;;;359.20;2124.80;;;;;;5062439;28;20023;-73
2021/04/20 08:34:30;;;;;;;43.10;33.50;;;384.10;2099.20;;;;;;5052594;28;20455;-73
2021/04/20 08:37:06;;;;;;;43.83;34.53;;;384.50;2048.00;;;;;;5060839;28;20033;-73
2021/04/20 08:39:38;;;;;;;49.85;36.25;;;384.50;2048.00;;;;;;5063162;28;20024;-73
2021/04/20 08:42:41;;;;;;;43.40;33.42;;;384.30;2073.60;;;;;;5072941;28;20384;-74
2021/04/20 08:45:29;;;;;;;44.08;33.00;;;384.30;2022.40;;;;;;5055994;28;20622;-73
2021/04/20 08:48:16;;;;;;;53.88;37.05;;;359.30;2073.60;;;;;;5058944;28;20091;-73
2021/04/20 08:50:48;;;;;;;40.42;32.05;;;384.10;2099.20;;;;;;5051612;28;20074;-74
2021/04/20 08:54:01;;;;;;;41.45;32.55;;;384.30;2022.40;;;;;;5059340;28;20013;-73
2021/04/20 08:56:40;;;;;;;41.60;32.17;;;384.40;1996.80;;;;;;4981758;28;20038;-72
2021/04/20 08:59:28;;;;;;;44.83;33.92;;;384.80;1971.20;;;;;;4963355;28;20027;-73
2021/04/20 09:01:53;;;;;;;39.95;28.88;;;410.30;1920.00;;;;;;4974729;28;20062;-73
2021/04/20 09:04:38;;;;;;;40.22;29.15;;;435.70;1792.00;;;;;;4972076;28;21937;-73
2021/04/20 09:07:57;;;;;;;42.50;30.77;;;435.50;1766.40;;;;;;4977051;28;20070;-72
2021/04/20 09:10:31;;;;;;;35.42;28.77;;;435.70;1817.60;;;;;;4943429;29;20445;-72
2021/04/20 09:13:08;;;;;;;40.25;30.05;;;435.50;1792.00;;;;;;4939401;28;20027;-72
2021/04/20 09:15:36;;;;;;;;;;;410.20;1868.80;;;;;;4939098;29;20395;-72
2021/04/20 09:18:07;;;;;;;38.78;31.02;;;410.00;1868.80;;;;;;4941349;29;20369;-73
2021/04/20 09:20:59;;;;;;;37.05;28.88;;;409.80;1920.00;;;;;;4941291;29;20063;-72
2021/04/20 09:23:55;;;;;;;58.00;37.10;;;384.80;1920.00;;;;;;4938972;28;20104;-73
2021/04/20 09:26:43;;;;;;;38.90;31.38;;;384.80;1971.20;;;;;;4934442;28;20073;-73
2021/04/20 09:29:28;;;;;;;49.35;35.22;;;384.70;1971.20;;;;;;4994484;28;20732;-72
2021/04/20 09:31:58;;;;;;;41.72;32.28;;;384.80;1945.60;;;;;;4991675;28;20042;-72
2021/04/20 09:34:28;;;;;;;40.67;31.27;;;384.60;1945.60;;;;;;4996870;28;20042;-72
2021/04/20 09:36:56;;;;;;;44.80;33.67;;;384.80;1945.60;;;;;;4989967;28;20038;-72
2021/04/20 09:39:22;;;;;;;40.47;30.50;;;384.90;1920.00;;;;;;4992812;28;20068;-72
2021/04/20 09:41:50;;;;;;;35.22;28.15;;;409.90;1920.00;;;;;;4992897;28;20445;-72
2021/04/20 09:44:54;;;;;;;32.88;26.42;;;410.40;1817.60;;;;;;5009220;28;20090;-73
2021/04/20 09:47:50;;;;;;;39.42;28.23;;;435.20;1792.00;;;;;;5025721;28;20037;-73
2021/04/20 09:50:34;;;;;;;35.55;26.65;;;410.50;1766.40;;;;;;5023778;28;20013;-72
2021/04/20 09:53:11;;;;;;;32.47;26.40;;;435.40;1766.40;;;;;;5034201;28;20432;-72
2021/04/20 09:55:49;;;;;;;35.65;29.38;;;435.70;1740.80;;;;;;5031536;28;20519;-72
2021/04/20 09:58:19;;;;;;;35.95;28.08;;;435.80;1766.40;;;;;;5035481;28;20063;-72
2021/04/20 10:00:46;;;;;;;35.28;28.42;;;435.70;1740.80;;;;;;5049257;28;20512;-72
2021/04/20 10:03:23;;;;;;;45.33;30.88;;;435.50;1792.00;;;;;;5059163;28;20486;-72
2021/04/20 10:05:55;;;;;;;44.47;32.63;;;410.50;1843.20;;;;;;5055397;28;20072;-72
2021/04/20 10:08:43;;;;;;;38.97;31.10;;;410.30;1817.60;;;;;;5053854;28;20017;-72
2021/04/20 10:11:20;;;;;;;38.30;30.60;;;435.40;1766.40;;;;;;5058834;28;20108;-74
2021/04/20 10:14:18;;;;;;;31.85;25.08;;;461.00;1740.80;;;;;;5060538;28;20052;-73
2021/04/20 10:17:14;;;;;;;34.47;26.42;;;486.50;1612.80;;;;;;4975920;28;20034;-74
2021/04/20 10:20:00;;;;;;;34.78;22.35;;;512.00;1484.80;;;;;;4978066;28;20046;-74
2021/04/20 10:22:44;;;;;;;38.97;28.38;;;512.80;1356.80;;;;;;4976325;28;20042;-72
2021/04/20 10:25:21;;;;;;;35.13;25.33;;;512.00;1459.20;;;;;;4974699;28;20086;-74
2021/04/20 10:27:53;;;;;;;29.05;23.73;;;512.10;1408.00;;;;;;4983041;28;20510;-73
2021/04/20 10:30:25;;;;;;;36.13;26.60;;;512.20;1408.00;;;;;;4984583;28;20592;-73
2021/04/20 10:32:53;;;;;;;30.90;26.92;;;537.80;1382.40;;;;;;4981349;28;20023;-73
2021/04/20 10:35:21;;;;;;;30.98;25.35;;;512.30;1408.00;;;;;;4976127;28;20417;-74
2021/04/20 10:37:54;;;;;;;34.17;27.25;;;512.60;1408.00;;;;;;4977211;28;20030;-74
2021/04/20 10:40:28;;;;;;;37.22;27.52;;;537.90;1433.60;;;;;;4984148;28;20094;-73
2021/04/20 10:42:54;;;;;;;28.70;24.13;;;563.20;1382.40;;;;;;4972644;28;20027;-73
2021/04/20 10:45:24;;;;;;;31.80;26.13;;;563.20;1331.20;;;;;;4973314;28;20029;-73
2021/04/20 10:47:52;;;;;;;29.70;25.80;;;512.30;1356.80;;;;;;4979683;28;20034;-74
2021/04/20 10:50:32;;;;;;;26.95;23.73;;;538.10;1356.80;;;;;;4975843;28;20098;-74
2021/04/20 10:53:05;;;;;;;30.85;25.50;;;538.00;1356.80;;;;;;5006506;28;20029;-73
2021/04/20 10:55:34;;;;;;;35.80;27.65;;;487.10;1459.20;;;;;;5057570;28;20491;-73
2021/04/20 10:58:02;;;;;;;28.50;24.10;;;461.60;1561.60;;;;;;5060352;28;20037;-73
2021/04/20 11:00:29;;;;;;;37.17;29.45;;;461.30;1561.60;;;;;;5059449;28;20388;-73
2021/04/20 11:02:59;;;;;;;29.58;24.33;;;436.00;1612.80;;;;;;5055755;28;20032;-73
2021/04/20 11:05:27;;;;;;;34.08;27.88;;;436.00;1587.20;;;;;;5058324;28;20044;-73
2021/04/20 11:07:55;;;;;;;32.20;27.55;;;460.80;1612.80;;;;;;5055412;28;20400;-73
2021/04/20 11:10:27;;;;;;;29.92;25.88;;;436.10;1587.20;;;;;;5052818;28;20017;-74
2021/04/20 11:12:54;;;;;;;32.08;25.33;;;435.70;1587.20;;;;;;5051863;28;20487;-74
2021/04/20 11:15:30;;;;;;;30.70;25.42;;;435.20;1689.60;;;;;;5046209;28;20021;-74
2021/04/20 11:17:55;;;;;;;;;;;435.50;1664.00;;;;;;5048773;28;20033;-74
2021/04/20 11:20:40;;;;;;;34.30;27.60;;;435.70;1664.00;;;;;;5058714;28;19911;-74
2021/04/20 11:23:09;;;;;;;35.33;27.33;;;435.50;1689.60;;;;;;5057820;28;20078;-71
2021/04/20 11:26:07;;;;;;;32.70;26.85;;;435.50;1664.00;;;;;;5059750;28;20112;-73
2021/04/20 11:28:45;;;;;;;31.77;27.08;;;435.40;1689.60;;;;;;5050145;28;20365;-74
2021/04/20 11:31:23;;;;;;;39.08;29.63;;;435.40;1664.00;;;;;;5058777;28;20079;-73
2021/04/20 11:34:07;;;;;;;31.77;25.13;;;435.50;1664.00;;;;;;5059989;28;20025;-74
2021/04/20 11:36:34;;;;;;;36.10;26.30;;;435.40;1638.40;;;;;;5060869;28;20436;-73
2021/04/20 11:39:05;;;;;;;32.65;25.90;;;435.50;1638.40;;;;;;5047825;28;20029;-73
2021/04/20 11:41:36;;;;;;;39.10;26.90;;;435.50;1638.40;;;;;;5059119;28;20091;-74
2021/04/20 11:44:05;;;;;;;36.17;24.23;;;435.50;1638.40;;;;;;5061264;28;20029;-74
2021/04/20 11:46:34;;;;;;;29.80;24.05;;;435.70;1587.20;;;;;;5066908;28;20112;-74
2021/04/20 11:49:30;;;;;;;36.70;24.52;;;435.80;1587.20;;;;;;5063178;28;20021;-74
2021/04/20 11:51:57;;;;;;;31.70;23.85;;;435.50;1587.20;;;;;;4976107;28;20031;-74
2021/04/20 11:54:25;;;;;;;33.75;25.98;;;435.50;1638.40;;;;;;4995930;28;20050;-74
2021/04/20 11:56:56;;;;;;;28.98;22.33;;;435.70;1587.20;;;;;;4993511;28;20039;-75
2021/04/20 11:59:23;;;;;;;26.98;20.85;;;435.90;1536.00;;;;;;5003577;28;20112;-74
2021/04/20 12:01:50;;;;;;;50.47;32.08;;;435.90;1536.00;;;;;;4992291;28;20030;-74
2021/04/20 12:04:24;;;;;;;29.30;22.83;;;435.90;1536.00;;;;;;4991926;28;20600;-73
2021/04/20 12:06:51;;;;;;;28.15;22.85;;;461.10;1510.40;;;;;;4992023;28;20105;-73
2021/04/20 12:09:23;;;;;;;45.78;30.30;;;461.30;1510.40;;;;;;4991669;28;20035;-73
2021/04/20 12:11:50;;;;;;;39.65;27.02;;;461.30;1510.40;;;;;;4992076;28;20030;-73
2021/04/20 12:14:23;;;;;;;28.67;22.75;;;461.30;1510.40;;;;;;4991425;28;20521;-73
2021/04/20 12:16:50;;;;;;;25.88;21.42;;;486.40;1433.60;;;;;;4991460;28;20430;-73
2021/04/20 12:19:18;;;;;;;77.28;45.22;;;487.20;1382.40;;;;;;4989842;28;20026;-72
2021/04/20 12:21:46;;;;;;;34.67;26.90;;;512.00;1356.80;;;;;;4990053;28;20065;-72
2021/04/20 12:24:21;;;;;;;29.88;21.90;;;512.40;1356.80;;;;;;4990717;28;20418;-73